sensor_id;sensor_type;location;lat;lon;timestamp;P1;durP1;ratioP1;P2;durP2;ratioP2
78989;SDS011;68390;52.130;21.218;2023-07-22T00:01:35;8.57;;;6.35;;
78989;SDS011;68390;52.130;21.218;2023-07-22T00:04:01;9.02;;;7.22;;
78989;SDS011;68390;52.130;21.218;2023-07-22T00:06:27;7.93;;;6.38;;
78989;SDS011;68390;52.130;21.218;2023-07-22T00:08:52;5.97;;;5.30;;
78989;SDS011;68390;52.130;21.218;2023-07-22T00:11:18;5.78;;;5.18;;
78989;SDS011;68390;52.130;21.218;2023-07-22T00:13:45;7.53;;;5.63;;
78989;SDS011;68390;52.130;21.218;2023-07-22T00:16:10;5.78;;;5.15;;
78989;SDS011;68390;52.130;21.218;2023-07-22T00:18:35;8.27;;;6.78;;
78989;SDS011;68390;52.130;21.218;2023-07-22T00:21:01;6.70;;;5.78;;
78989;SDS011;68390;52.130;21.218;2023-07-22T00:23:27;6.78;;;6.07;;
78989;SDS011;68390;52.130;21.218;2023-07-22T00:25:52;7.22;;;5.95;;
78989;SDS011;68390;52.130;21.218;2023-07-22T00:28:17;7.17;;;5.33;;
78989;SDS011;68390;52.130;21.218;2023-07-22T00:30:43;7.38;;;6.10;;
78989;SDS011;68390;52.130;21.218;2023-07-22T00:33:09;7.35;;;5.32;;
78989;SDS011;68390;52.130;21.218;2023-07-22T00:35:34;8.15;;;6.85;;
78989;SDS011;68390;52.130;21.218;2023-07-22T00:38:00;8.30;;;6.25;;
78989;SDS011;68390;52.130;21.218;2023-07-22T00:40:26;13.52;;;4.72;;
78989;SDS011;68390;52.130;21.218;2023-07-22T00:42:52;9.18;;;7.18;;
78989;SDS011;68390;52.130;21.218;2023-07-22T00:45:17;8.50;;;6.47;;
78989;SDS011;68390;52.130;21.218;2023-07-22T00:47:43;6.75;;;5.82;;
78989;SDS011;68390;52.130;21.218;2023-07-22T00:50:09;7.93;;;5.97;;
78989;SDS011;68390;52.130;21.218;2023-07-22T00:52:36;6.93;;;6.03;;
78989;SDS011;68390;52.130;21.218;2023-07-22T00:55:03;7.43;;;6.22;;
78989;SDS011;68390;52.130;21.218;2023-07-22T00:57:30;8.98;;;7.10;;
78989;SDS011;68390;52.130;21.218;2023-07-22T00:59:55;9.02;;;6.63;;
78989;SDS011;68390;52.130;21.218;2023-07-22T01:02:21;8.25;;;6.38;;
78989;SDS011;68390;52.130;21.218;2023-07-22T01:04:47;7.80;;;6.30;;
78989;SDS011;68390;52.130;21.218;2023-07-22T01:07:14;11.07;;;7.43;;
78989;SDS011;68390;52.130;21.218;2023-07-22T01:09:41;8.00;;;6.22;;
78989;SDS011;68390;52.130;21.218;2023-07-22T01:12:08;9.90;;;8.15;;
78989;SDS011;68390;52.130;21.218;2023-07-22T01:14:34;7.75;;;6.47;;
78989;SDS011;68390;52.130;21.218;2023-07-22T01:17:04;9.88;;;7.97;;
78989;SDS011;68390;52.130;21.218;2023-07-22T01:19:31;10.60;;;8.30;;
78989;SDS011;68390;52.130;21.218;2023-07-22T01:21:57;10.90;;;8.30;;
78989;SDS011;68390;52.130;21.218;2023-07-22T01:24:25;6.43;;;5.30;;
78989;SDS011;68390;52.130;21.218;2023-07-22T01:26:51;9.82;;;8.70;;
78989;SDS011;68390;52.130;21.218;2023-07-22T01:29:16;13.63;;;8.18;;
78989;SDS011;68390;52.130;21.218;2023-07-22T01:31:42;7.40;;;6.10;;
78989;SDS011;68390;52.130;21.218;2023-07-22T01:34:07;8.77;;;5.70;;
78989;SDS011;68390;52.130;21.218;2023-07-22T01:36:32;8.77;;;7.70;;
78989;SDS011;68390;52.130;21.218;2023-07-22T01:38:59;10.20;;;8.50;;
78989;SDS011;68390;52.130;21.218;2023-07-22T01:41:25;8.43;;;7.13;;
78989;SDS011;68390;52.130;21.218;2023-07-22T01:43:51;9.38;;;7.45;;
78989;SDS011;68390;52.130;21.218;2023-07-22T01:46:16;10.90;;;8.43;;
78989;SDS011;68390;52.130;21.218;2023-07-22T01:48:41;10.57;;;7.95;;
78989;SDS011;68390;52.130;21.218;2023-07-22T01:51:07;8.52;;;7.60;;
78989;SDS011;68390;52.130;21.218;2023-07-22T01:53:33;9.23;;;7.85;;
78989;SDS011;68390;52.130;21.218;2023-07-22T01:55:59;7.78;;;6.38;;
78989;SDS011;68390;52.130;21.218;2023-07-22T01:58:24;9.50;;;7.97;;
78989;SDS011;68390;52.130;21.218;2023-07-22T02:00:50;9.45;;;7.25;;
78989;SDS011;68390;52.130;21.218;2023-07-22T02:03:15;10.02;;;8.80;;
78989;SDS011;68390;52.130;21.218;2023-07-22T02:05:41;10.20;;;9.15;;
78989;SDS011;68390;52.130;21.218;2023-07-22T02:08:06;12.52;;;9.00;;
78989;SDS011;68390;52.130;21.218;2023-07-22T02:10:32;9.80;;;8.32;;
78989;SDS011;68390;52.130;21.218;2023-07-22T02:12:57;9.93;;;8.23;;
78989;SDS011;68390;52.130;21.218;2023-07-22T02:15:22;12.30;;;9.17;;
78989;SDS011;68390;52.130;21.218;2023-07-22T02:17:49;8.50;;;6.68;;
78989;SDS011;68390;52.130;21.218;2023-07-22T02:20:15;10.68;;;9.20;;
78989;SDS011;68390;52.130;21.218;2023-07-22T02:22:40;11.50;;;9.32;;
78989;SDS011;68390;52.130;21.218;2023-07-22T02:25:06;10.35;;;8.98;;
78989;SDS011;68390;52.130;21.218;2023-07-22T02:27:32;10.55;;;8.45;;
78989;SDS011;68390;52.130;21.218;2023-07-22T02:29:57;9.50;;;7.95;;
78989;SDS011;68390;52.130;21.218;2023-07-22T02:32:23;10.57;;;8.50;;
78989;SDS011;68390;52.130;21.218;2023-07-22T02:34:48;11.00;;;9.68;;
78989;SDS011;68390;52.130;21.218;2023-07-22T02:37:13;8.18;;;7.03;;
78989;SDS011;68390;52.130;21.218;2023-07-22T02:39:39;10.60;;;9.38;;
78989;SDS011;68390;52.130;21.218;2023-07-22T02:42:04;10.27;;;8.50;;
78989;SDS011;68390;52.130;21.218;2023-07-22T02:44:30;12.68;;;9.13;;
78989;SDS011;68390;52.130;21.218;2023-07-22T02:46:55;8.65;;;7.00;;
78989;SDS011;68390;52.130;21.218;2023-07-22T02:49:20;11.40;;;9.55;;
78989;SDS011;68390;52.130;21.218;2023-07-22T02:51:46;10.82;;;9.20;;
78989;SDS011;68390;52.130;21.218;2023-07-22T02:54:11;9.90;;;7.82;;
78989;SDS011;68390;52.130;21.218;2023-07-22T02:56:36;11.27;;;9.63;;
78989;SDS011;68390;52.130;21.218;2023-07-22T02:59:02;7.32;;;6.20;;
78989;SDS011;68390;52.130;21.218;2023-07-22T03:01:27;8.02;;;6.40;;
78989;SDS011;68390;52.130;21.218;2023-07-22T03:03:54;11.68;;;9.60;;
78989;SDS011;68390;52.130;21.218;2023-07-22T03:06:20;10.98;;;9.23;;
78989;SDS011;68390;52.130;21.218;2023-07-22T03:08:45;10.20;;;8.85;;
78989;SDS011;68390;52.130;21.218;2023-07-22T03:11:10;13.98;;;9.60;;
78989;SDS011;68390;52.130;21.218;2023-07-22T03:13:36;18.20;;;10.88;;
78989;SDS011;68390;52.130;21.218;2023-07-22T03:16:01;12.13;;;9.30;;
78989;SDS011;68390;52.130;21.218;2023-07-22T03:18:30;7.13;;;6.43;;
78989;SDS011;68390;52.130;21.218;2023-07-22T03:20:56;7.97;;;6.38;;
78989;SDS011;68390;52.130;21.218;2023-07-22T03:23:22;11.23;;;9.70;;
78989;SDS011;68390;52.130;21.218;2023-07-22T03:25:47;9.45;;;7.78;;
78989;SDS011;68390;52.130;21.218;2023-07-22T03:28:13;17.23;;;10.73;;
78989;SDS011;68390;52.130;21.218;2023-07-22T03:30:38;16.52;;;9.55;;
78989;SDS011;68390;52.130;21.218;2023-07-22T03:33:03;8.80;;;7.50;;
78989;SDS011;68390;52.130;21.218;2023-07-22T03:35:29;12.25;;;9.07;;
78989;SDS011;68390;52.130;21.218;2023-07-22T03:37:54;20.10;;;9.65;;
78989;SDS011;68390;52.130;21.218;2023-07-22T03:40:20;13.43;;;10.30;;
78989;SDS011;68390;52.130;21.218;2023-07-22T03:42:47;18.10;;;10.25;;
78989;SDS011;68390;52.130;21.218;2023-07-22T03:45:14;16.17;;;10.10;;
78989;SDS011;68390;52.130;21.218;2023-07-22T03:47:39;17.67;;;9.57;;
78989;SDS011;68390;52.130;21.218;2023-07-22T03:50:05;22.92;;;9.82;;
78989;SDS011;68390;52.130;21.218;2023-07-22T03:52:31;15.88;;;9.82;;
78989;SDS011;68390;52.130;21.218;2023-07-22T03:54:57;18.80;;;10.35;;
78989;SDS011;68390;52.130;21.218;2023-07-22T03:57:26;19.60;;;10.27;;
78989;SDS011;68390;52.130;21.218;2023-07-22T03:59:52;15.20;;;9.00;;
78989;SDS011;68390;52.130;21.218;2023-07-22T04:02:21;13.63;;;10.00;;
78989;SDS011;68390;52.130;21.218;2023-07-22T04:04:46;15.32;;;9.82;;
78989;SDS011;68390;52.130;21.218;2023-07-22T04:07:12;11.63;;;9.07;;
78989;SDS011;68390;52.130;21.218;2023-07-22T04:09:37;13.43;;;9.93;;
78989;SDS011;68390;52.130;21.218;2023-07-22T04:12:02;12.50;;;9.25;;
78989;SDS011;68390;52.130;21.218;2023-07-22T04:14:28;11.82;;;8.88;;
78989;SDS011;68390;52.130;21.218;2023-07-22T04:16:54;14.65;;;10.18;;
78989;SDS011;68390;52.130;21.218;2023-07-22T04:19:19;11.32;;;9.48;;
78989;SDS011;68390;52.130;21.218;2023-07-22T04:21:45;14.20;;;10.25;;
78989;SDS011;68390;52.130;21.218;2023-07-22T04:24:10;12.37;;;9.53;;
78989;SDS011;68390;52.130;21.218;2023-07-22T04:26:36;11.50;;;9.35;;
78989;SDS011;68390;52.130;21.218;2023-07-22T04:29:01;11.75;;;9.82;;
78989;SDS011;68390;52.130;21.218;2023-07-22T04:31:26;13.75;;;10.18;;
78989;SDS011;68390;52.130;21.218;2023-07-22T04:33:52;12.55;;;10.63;;
78989;SDS011;68390;52.130;21.218;2023-07-22T04:36:17;12.00;;;9.55;;
78989;SDS011;68390;52.130;21.218;2023-07-22T04:38:42;10.23;;;8.68;;
78989;SDS011;68390;52.130;21.218;2023-07-22T04:41:08;12.93;;;10.10;;
78989;SDS011;68390;52.130;21.218;2023-07-22T04:43:33;11.77;;;9.80;;
78989;SDS011;68390;52.130;21.218;2023-07-22T04:45:58;11.35;;;10.15;;
78989;SDS011;68390;52.130;21.218;2023-07-22T04:48:24;12.25;;;8.85;;
78989;SDS011;68390;52.130;21.218;2023-07-22T04:50:49;12.52;;;10.80;;
78989;SDS011;68390;52.130;21.218;2023-07-22T04:53:16;10.45;;;9.35;;
78989;SDS011;68390;52.130;21.218;2023-07-22T04:55:42;11.88;;;9.82;;
78989;SDS011;68390;52.130;21.218;2023-07-22T04:58:08;14.15;;;10.20;;
78989;SDS011;68390;52.130;21.218;2023-07-22T05:00:35;13.52;;;9.82;;
78989;SDS011;68390;52.130;21.218;2023-07-22T05:03:02;9.40;;;8.38;;
78989;SDS011;68390;52.130;21.218;2023-07-22T05:05:28;12.20;;;10.55;;
78989;SDS011;68390;52.130;21.218;2023-07-22T05:07:53;10.32;;;9.20;;
78989;SDS011;68390;52.130;21.218;2023-07-22T05:10:19;13.82;;;10.10;;
78989;SDS011;68390;52.130;21.218;2023-07-22T05:12:45;12.25;;;10.57;;
78989;SDS011;68390;52.130;21.218;2023-07-22T05:15:11;13.75;;;10.60;;
78989;SDS011;68390;52.130;21.218;2023-07-22T05:17:38;10.93;;;8.57;;
78989;SDS011;68390;52.130;21.218;2023-07-22T05:20:04;12.65;;;9.63;;
78989;SDS011;68390;52.130;21.218;2023-07-22T05:22:31;11.38;;;9.43;;
78989;SDS011;68390;52.130;21.218;2023-07-22T05:24:57;13.10;;;9.52;;
78989;SDS011;68390;52.130;21.218;2023-07-22T05:27:22;11.25;;;8.88;;
78989;SDS011;68390;52.130;21.218;2023-07-22T05:29:48;10.95;;;9.23;;
78989;SDS011;68390;52.130;21.218;2023-07-22T05:32:13;11.60;;;8.57;;
78989;SDS011;68390;52.130;21.218;2023-07-22T05:34:38;9.85;;;8.65;;
78989;SDS011;68390;52.130;21.218;2023-07-22T05:37:04;10.23;;;7.75;;
78989;SDS011;68390;52.130;21.218;2023-07-22T05:39:29;12.15;;;8.38;;
78989;SDS011;68390;52.130;21.218;2023-07-22T05:41:55;9.73;;;8.17;;
78989;SDS011;68390;52.130;21.218;2023-07-22T05:44:20;13.45;;;9.77;;
78989;SDS011;68390;52.130;21.218;2023-07-22T05:46:46;12.00;;;8.20;;
78989;SDS011;68390;52.130;21.218;2023-07-22T05:49:11;36.67;;;19.83;;
78989;SDS011;68390;52.130;21.218;2023-07-22T05:51:37;16.40;;;11.35;;
78989;SDS011;68390;52.130;21.218;2023-07-22T05:54:02;10.43;;;6.90;;
78989;SDS011;68390;52.130;21.218;2023-07-22T05:56:28;8.60;;;7.35;;
78989;SDS011;68390;52.130;21.218;2023-07-22T05:58:53;7.60;;;6.72;;
78989;SDS011;68390;52.130;21.218;2023-07-22T06:01:19;7.80;;;6.82;;
78989;SDS011;68390;52.130;21.218;2023-07-22T06:03:45;9.20;;;7.43;;
78989;SDS011;68390;52.130;21.218;2023-07-22T06:06:10;8.43;;;7.22;;
78989;SDS011;68390;52.130;21.218;2023-07-22T06:08:36;7.93;;;6.17;;
78989;SDS011;68390;52.130;21.218;2023-07-22T06:11:01;7.90;;;6.60;;
78989;SDS011;68390;52.130;21.218;2023-07-22T06:13:26;10.27;;;7.47;;
78989;SDS011;68390;52.130;21.218;2023-07-22T06:15:52;10.05;;;6.78;;
78989;SDS011;68390;52.130;21.218;2023-07-22T06:18:17;9.85;;;7.03;;
78989;SDS011;68390;52.130;21.218;2023-07-22T06:20:43;9.00;;;7.25;;
78989;SDS011;68390;52.130;21.218;2023-07-22T06:23:09;7.93;;;6.18;;
78989;SDS011;68390;52.130;21.218;2023-07-22T06:25:34;11.57;;;7.40;;
78989;SDS011;68390;52.130;21.218;2023-07-22T06:28:00;9.45;;;7.47;;
78989;SDS011;68390;52.130;21.218;2023-07-22T06:30:25;9.05;;;5.93;;
78989;SDS011;68390;52.130;21.218;2023-07-22T06:32:51;8.95;;;6.82;;
78989;SDS011;68390;52.130;21.218;2023-07-22T06:35:16;8.25;;;7.07;;
78989;SDS011;68390;52.130;21.218;2023-07-22T06:37:41;7.25;;;5.93;;
78989;SDS011;68390;52.130;21.218;2023-07-22T06:40:07;7.27;;;5.90;;
78989;SDS011;68390;52.130;21.218;2023-07-22T06:42:33;8.95;;;6.30;;
78989;SDS011;68390;52.130;21.218;2023-07-22T06:44:58;7.47;;;5.32;;
78989;SDS011;68390;52.130;21.218;2023-07-22T06:47:24;7.88;;;4.55;;
78989;SDS011;68390;52.130;21.218;2023-07-22T06:49:49;5.93;;;4.20;;
78989;SDS011;68390;52.130;21.218;2023-07-22T06:52:15;5.82;;;4.35;;
78989;SDS011;68390;52.130;21.218;2023-07-22T06:54:41;6.07;;;3.90;;
78989;SDS011;68390;52.130;21.218;2023-07-22T06:57:06;5.22;;;3.90;;
78989;SDS011;68390;52.130;21.218;2023-07-22T06:59:32;5.10;;;3.90;;
78989;SDS011;68390;52.130;21.218;2023-07-22T07:01:57;6.50;;;4.40;;
78989;SDS011;68390;52.130;21.218;2023-07-22T07:04:22;5.88;;;4.38;;
78989;SDS011;68390;52.130;21.218;2023-07-22T07:06:49;5.60;;;4.80;;
78989;SDS011;68390;52.130;21.218;2023-07-22T07:09:15;7.18;;;4.43;;
78989;SDS011;68390;52.130;21.218;2023-07-22T07:11:40;5.65;;;3.92;;
78989;SDS011;68390;52.130;21.218;2023-07-22T07:14:06;4.57;;;3.70;;
78989;SDS011;68390;52.130;21.218;2023-07-22T07:16:31;5.43;;;4.18;;
78989;SDS011;68390;52.130;21.218;2023-07-22T07:18:57;5.40;;;4.05;;
78989;SDS011;68390;52.130;21.218;2023-07-22T07:21:24;6.53;;;4.47;;
78989;SDS011;68390;52.130;21.218;2023-07-22T07:23:50;6.60;;;3.83;;
78989;SDS011;68390;52.130;21.218;2023-07-22T07:26:16;9.05;;;4.60;;
78989;SDS011;68390;52.130;21.218;2023-07-22T07:28:42;6.68;;;4.32;;
78989;SDS011;68390;52.130;21.218;2023-07-22T07:31:07;6.22;;;4.43;;
78989;SDS011;68390;52.130;21.218;2023-07-22T07:33:33;62.97;;;26.52;;
78989;SDS011;68390;52.130;21.218;2023-07-22T07:35:58;9.18;;;4.60;;
78989;SDS011;68390;52.130;21.218;2023-07-22T07:38:24;8.07;;;4.10;;
78989;SDS011;68390;52.130;21.218;2023-07-22T07:40:55;5.68;;;3.65;;
78989;SDS011;68390;52.130;21.218;2023-07-22T07:43:21;6.03;;;4.10;;
78989;SDS011;68390;52.130;21.218;2023-07-22T07:45:46;7.07;;;4.03;;
78989;SDS011;68390;52.130;21.218;2023-07-22T07:48:11;8.60;;;3.83;;
78989;SDS011;68390;52.130;21.218;2023-07-22T07:50:37;8.07;;;3.75;;
78989;SDS011;68390;52.130;21.218;2023-07-22T07:53:02;3.88;;;3.20;;
78989;SDS011;68390;52.130;21.218;2023-07-22T07:55:28;7.38;;;4.20;;
78989;SDS011;68390;52.130;21.218;2023-07-22T07:57:53;6.72;;;3.58;;
78989;SDS011;68390;52.130;21.218;2023-07-22T08:00:19;3.58;;;2.80;;
78989;SDS011;68390;52.130;21.218;2023-07-22T08:02:45;5.10;;;2.90;;
78989;SDS011;68390;52.130;21.218;2023-07-22T08:05:11;4.60;;;3.22;;
78989;SDS011;68390;52.130;21.218;2023-07-22T08:07:37;4.70;;;2.75;;
78989;SDS011;68390;52.130;21.218;2023-07-22T08:10:03;4.32;;;2.97;;
78989;SDS011;68390;52.130;21.218;2023-07-22T08:12:30;3.90;;;2.92;;
78989;SDS011;68390;52.130;21.218;2023-07-22T08:14:55;5.03;;;3.10;;
78989;SDS011;68390;52.130;21.218;2023-07-22T08:17:21;4.22;;;3.10;;
78989;SDS011;68390;52.130;21.218;2023-07-22T08:19:46;4.70;;;2.80;;
78989;SDS011;68390;52.130;21.218;2023-07-22T08:22:12;5.18;;;3.33;;
78989;SDS011;68390;52.130;21.218;2023-07-22T08:24:37;4.63;;;3.00;;
78989;SDS011;68390;52.130;21.218;2023-07-22T08:27:03;4.57;;;2.83;;
78989;SDS011;68390;52.130;21.218;2023-07-22T08:29:28;5.43;;;3.75;;
78989;SDS011;68390;52.130;21.218;2023-07-22T08:31:54;5.72;;;2.85;;
78989;SDS011;68390;52.130;21.218;2023-07-22T08:34:19;4.47;;;2.90;;
78989;SDS011;68390;52.130;21.218;2023-07-22T08:36:45;7.03;;;3.47;;
78989;SDS011;68390;52.130;21.218;2023-07-22T08:39:10;4.77;;;3.10;;
78989;SDS011;68390;52.130;21.218;2023-07-22T08:41:36;7.43;;;5.82;;
78989;SDS011;68390;52.130;21.218;2023-07-22T08:44:01;4.43;;;3.60;;
78989;SDS011;68390;52.130;21.218;2023-07-22T08:46:29;4.95;;;3.30;;
78989;SDS011;68390;52.130;21.218;2023-07-22T08:48:59;4.47;;;2.60;;
78989;SDS011;68390;52.130;21.218;2023-07-22T08:51:26;3.85;;;2.47;;
78989;SDS011;68390;52.130;21.218;2023-07-22T08:53:55;4.10;;;3.03;;
78989;SDS011;68390;52.130;21.218;2023-07-22T08:56:24;4.00;;;2.60;;
78989;SDS011;68390;52.130;21.218;2023-07-22T08:58:53;6.55;;;3.53;;
78989;SDS011;68390;52.130;21.218;2023-07-22T09:01:19;4.53;;;3.28;;
78989;SDS011;68390;52.130;21.218;2023-07-22T09:03:45;4.65;;;3.13;;
78989;SDS011;68390;52.130;21.218;2023-07-22T09:06:12;5.07;;;2.90;;
78989;SDS011;68390;52.130;21.218;2023-07-22T09:08:38;5.88;;;3.00;;
78989;SDS011;68390;52.130;21.218;2023-07-22T09:11:04;6.95;;;3.00;;
78989;SDS011;68390;52.130;21.218;2023-07-22T09:13:29;4.38;;;2.50;;
78989;SDS011;68390;52.130;21.218;2023-07-22T09:15:59;5.70;;;2.53;;
78989;SDS011;68390;52.130;21.218;2023-07-22T09:18:25;5.35;;;2.42;;
78989;SDS011;68390;52.130;21.218;2023-07-22T09:20:51;5.90;;;2.53;;
78989;SDS011;68390;52.130;21.218;2023-07-22T09:23:16;5.40;;;2.70;;
78989;SDS011;68390;52.130;21.218;2023-07-22T09:25:42;4.53;;;2.40;;
78989;SDS011;68390;52.130;21.218;2023-07-22T09:28:08;5.28;;;2.40;;
78989;SDS011;68390;52.130;21.218;2023-07-22T09:30:35;3.72;;;2.53;;
78989;SDS011;68390;52.130;21.218;2023-07-22T09:33:03;5.32;;;2.70;;
78989;SDS011;68390;52.130;21.218;2023-07-22T09:37:58;3.70;;;2.38;;
78989;SDS011;68390;52.130;21.218;2023-07-22T09:40:25;6.85;;;2.60;;
78989;SDS011;68390;52.130;21.218;2023-07-22T09:42:52;5.72;;;2.55;;
78989;SDS011;68390;52.130;21.218;2023-07-22T09:45:19;4.55;;;2.65;;
78989;SDS011;68390;52.130;21.218;2023-07-22T09:47:47;4.50;;;2.45;;
78989;SDS011;68390;52.130;21.218;2023-07-22T09:50:15;4.15;;;2.63;;
78989;SDS011;68390;52.130;21.218;2023-07-22T09:52:45;4.65;;;2.58;;
78989;SDS011;68390;52.130;21.218;2023-07-22T09:55:16;4.60;;;2.53;;
78989;SDS011;68390;52.130;21.218;2023-07-22T09:57:44;3.38;;;2.63;;
78989;SDS011;68390;52.130;21.218;2023-07-22T10:00:14;4.85;;;2.30;;
78989;SDS011;68390;52.130;21.218;2023-07-22T10:02:41;3.72;;;2.50;;
78989;SDS011;68390;52.130;21.218;2023-07-22T10:05:14;5.28;;;2.65;;
78989;SDS011;68390;52.130;21.218;2023-07-22T10:07:45;4.72;;;2.50;;
78989;SDS011;68390;52.130;21.218;2023-07-22T10:10:13;4.85;;;2.50;;
78989;SDS011;68390;52.130;21.218;2023-07-22T10:12:41;3.53;;;2.60;;
78989;SDS011;68390;52.130;21.218;2023-07-22T10:15:11;5.10;;;2.50;;
78989;SDS011;68390;52.130;21.218;2023-07-22T10:17:38;7.45;;;2.60;;
78989;SDS011;68390;52.130;21.218;2023-07-22T10:20:11;4.68;;;2.80;;
78989;SDS011;68390;52.130;21.218;2023-07-22T10:22:41;4.82;;;2.70;;
78989;SDS011;68390;52.130;21.218;2023-07-22T10:25:08;3.92;;;2.20;;
78989;SDS011;68390;52.130;21.218;2023-07-22T10:27:36;4.05;;;2.60;;
78989;SDS011;68390;52.130;21.218;2023-07-22T10:30:05;3.65;;;2.17;;
78989;SDS011;68390;52.130;21.218;2023-07-22T10:32:34;3.58;;;2.38;;
78989;SDS011;68390;52.130;21.218;2023-07-22T10:35:04;3.22;;;2.10;;
78989;SDS011;68390;52.130;21.218;2023-07-22T10:37:35;3.50;;;2.33;;
78989;SDS011;68390;52.130;21.218;2023-07-22T10:40:46;3.70;;;2.13;;
78989;SDS011;68390;52.130;21.218;2023-07-22T10:42:57;6.32;;;2.22;;
78989;SDS011;68390;52.130;21.218;2023-07-22T10:45:25;3.05;;;2.08;;
78989;SDS011;68390;52.130;21.218;2023-07-22T10:53:08;4.03;;;2.20;;
78989;SDS011;68390;52.130;21.218;2023-07-22T10:56:02;5.72;;;2.17;;
78989;SDS011;68390;52.130;21.218;2023-07-22T10:58:30;3.92;;;2.20;;
78989;SDS011;68390;52.130;21.218;2023-07-22T11:01:20;3.97;;;2.42;;
78989;SDS011;68390;52.130;21.218;2023-07-22T11:06:58;4.50;;;2.10;;
78989;SDS011;68390;52.130;21.218;2023-07-22T11:12:13;3.97;;;2.17;;
78989;SDS011;68390;52.130;21.218;2023-07-22T11:14:50;4.30;;;2.00;;
78989;SDS011;68390;52.130;21.218;2023-07-22T11:17:27;3.85;;;2.08;;
78989;SDS011;68390;52.130;21.218;2023-07-22T11:20:00;2.85;;;2.03;;
78989;SDS011;68390;52.130;21.218;2023-07-22T11:22:26;3.03;;;2.00;;
78989;SDS011;68390;52.130;21.218;2023-07-22T11:24:54;3.20;;;2.00;;
78989;SDS011;68390;52.130;21.218;2023-07-22T11:27:20;3.63;;;2.10;;
78989;SDS011;68390;52.130;21.218;2023-07-22T11:29:45;4.43;;;2.20;;
78989;SDS011;68390;52.130;21.218;2023-07-22T11:32:16;3.28;;;2.00;;
78989;SDS011;68390;52.130;21.218;2023-07-22T11:34:43;2.92;;;2.30;;
78989;SDS011;68390;52.130;21.218;2023-07-22T11:39:38;3.80;;;2.22;;
78989;SDS011;68390;52.130;21.218;2023-07-22T11:42:06;3.92;;;2.25;;
78989;SDS011;68390;52.130;21.218;2023-07-22T11:44:32;3.03;;;2.20;;
78989;SDS011;68390;52.130;21.218;2023-07-22T11:49:24;3.10;;;2.13;;
78989;SDS011;68390;52.130;21.218;2023-07-22T11:51:56;3.78;;;2.17;;
78989;SDS011;68390;52.130;21.218;2023-07-22T11:54:23;3.70;;;2.05;;
78989;SDS011;68390;52.130;21.218;2023-07-22T11:56:48;4.95;;;2.20;;
78989;SDS011;68390;52.130;21.218;2023-07-22T11:59:14;4.70;;;2.30;;
78989;SDS011;68390;52.130;21.218;2023-07-22T12:01:42;3.78;;;2.33;;
78989;SDS011;68390;52.130;21.218;2023-07-22T12:04:10;3.78;;;1.85;;
78989;SDS011;68390;52.130;21.218;2023-07-22T12:06:36;3.58;;;2.25;;
78989;SDS011;68390;52.130;21.218;2023-07-22T12:09:02;3.83;;;1.92;;
78989;SDS011;68390;52.130;21.218;2023-07-22T12:11:27;3.70;;;2.10;;
78989;SDS011;68390;52.130;21.218;2023-07-22T12:14:32;4.18;;;2.25;;
78989;SDS011;68390;52.130;21.218;2023-07-22T12:16:52;5.05;;;2.42;;
78989;SDS011;68390;52.130;21.218;2023-07-22T12:19:22;3.08;;;2.10;;
78989;SDS011;68390;52.130;21.218;2023-07-22T12:21:48;4.80;;;2.20;;
78989;SDS011;68390;52.130;21.218;2023-07-22T12:24:14;5.53;;;2.03;;
78989;SDS011;68390;52.130;21.218;2023-07-22T12:26:39;4.32;;;2.40;;
78989;SDS011;68390;52.130;21.218;2023-07-22T12:29:05;5.18;;;2.22;;
78989;SDS011;68390;52.130;21.218;2023-07-22T12:31:30;3.60;;;2.35;;
78989;SDS011;68390;52.130;21.218;2023-07-22T12:33:56;4.32;;;2.20;;
78989;SDS011;68390;52.130;21.218;2023-07-22T12:36:21;5.47;;;2.30;;
78989;SDS011;68390;52.130;21.218;2023-07-22T12:38:46;5.63;;;2.20;;
78989;SDS011;68390;52.130;21.218;2023-07-22T12:41:12;3.25;;;2.22;;
78989;SDS011;68390;52.130;21.218;2023-07-22T12:43:37;3.17;;;2.10;;
78989;SDS011;68390;52.130;21.218;2023-07-22T12:46:02;4.00;;;2.10;;
78989;SDS011;68390;52.130;21.218;2023-07-22T12:48:28;3.63;;;2.28;;
78989;SDS011;68390;52.130;21.218;2023-07-22T12:50:53;3.00;;;2.28;;
78989;SDS011;68390;52.130;21.218;2023-07-22T12:53:19;4.65;;;2.20;;
78989;SDS011;68390;52.130;21.218;2023-07-22T12:55:44;3.58;;;2.47;;
78989;SDS011;68390;52.130;21.218;2023-07-22T12:58:09;7.18;;;2.40;;
78989;SDS011;68390;52.130;21.218;2023-07-22T13:00:35;3.50;;;2.35;;
78989;SDS011;68390;52.130;21.218;2023-07-22T13:03:00;3.53;;;2.30;;
78989;SDS011;68390;52.130;21.218;2023-07-22T13:05:26;2.83;;;2.17;;
78989;SDS011;68390;52.130;21.218;2023-07-22T13:07:51;3.28;;;2.20;;
78989;SDS011;68390;52.130;21.218;2023-07-22T13:10:18;3.28;;;2.30;;
78989;SDS011;68390;52.130;21.218;2023-07-22T13:12:45;3.70;;;2.30;;
78989;SDS011;68390;52.130;21.218;2023-07-22T13:15:10;4.93;;;2.30;;
78989;SDS011;68390;52.130;21.218;2023-07-22T13:17:36;7.35;;;2.70;;
78989;SDS011;68390;52.130;21.218;2023-07-22T13:20:01;3.60;;;2.63;;
78989;SDS011;68390;52.130;21.218;2023-07-22T13:22:32;4.85;;;2.40;;
78989;SDS011;68390;52.130;21.218;2023-07-22T13:24:57;3.15;;;2.10;;
78989;SDS011;68390;52.130;21.218;2023-07-22T13:27:23;3.63;;;2.67;;
78989;SDS011;68390;52.130;21.218;2023-07-22T13:29:48;8.93;;;3.15;;
78989;SDS011;68390;52.130;21.218;2023-07-22T13:32:13;3.53;;;2.17;;
78989;SDS011;68390;52.130;21.218;2023-07-22T13:34:39;4.40;;;2.45;;
78989;SDS011;68390;52.130;21.218;2023-07-22T13:37:04;3.75;;;2.30;;
78989;SDS011;68390;52.130;21.218;2023-07-22T13:39:30;3.50;;;2.17;;
78989;SDS011;68390;52.130;21.218;2023-07-22T13:41:56;3.40;;;2.03;;
78989;SDS011;68390;52.130;21.218;2023-07-22T13:44:21;3.40;;;2.20;;
78989;SDS011;68390;52.130;21.218;2023-07-22T13:46:46;7.80;;;2.30;;
78989;SDS011;68390;52.130;21.218;2023-07-22T13:49:12;3.58;;;2.22;;
78989;SDS011;68390;52.130;21.218;2023-07-22T13:51:38;7.03;;;2.53;;
78989;SDS011;68390;52.130;21.218;2023-07-22T13:54:04;7.03;;;2.37;;
78989;SDS011;68390;52.130;21.218;2023-07-22T13:56:29;4.18;;;2.25;;
78989;SDS011;68390;52.130;21.218;2023-07-22T13:58:55;4.37;;;2.47;;
78989;SDS011;68390;52.130;21.218;2023-07-22T14:01:20;5.65;;;2.72;;
78989;SDS011;68390;52.130;21.218;2023-07-22T14:03:45;5.50;;;2.83;;
78989;SDS011;68390;52.130;21.218;2023-07-22T14:06:11;3.40;;;2.45;;
78989;SDS011;68390;52.130;21.218;2023-07-22T14:08:36;5.20;;;2.40;;
78989;SDS011;68390;52.130;21.218;2023-07-22T14:11:01;4.90;;;2.30;;
78989;SDS011;68390;52.130;21.218;2023-07-22T14:13:27;4.32;;;2.60;;
78989;SDS011;68390;52.130;21.218;2023-07-22T14:15:52;3.77;;;2.40;;
78989;SDS011;68390;52.130;21.218;2023-07-22T14:18:18;3.85;;;2.58;;
78989;SDS011;68390;52.130;21.218;2023-07-22T14:20:44;3.78;;;2.53;;
78989;SDS011;68390;52.130;21.218;2023-07-22T14:23:10;6.68;;;2.45;;
78989;SDS011;68390;52.130;21.218;2023-07-22T14:25:36;3.83;;;2.38;;
78989;SDS011;68390;52.130;21.218;2023-07-22T14:28:01;3.55;;;2.20;;
78989;SDS011;68390;52.130;21.218;2023-07-22T14:30:26;4.38;;;2.47;;
78989;SDS011;68390;52.130;21.218;2023-07-22T14:32:52;4.93;;;2.45;;
78989;SDS011;68390;52.130;21.218;2023-07-22T14:35:17;4.05;;;2.22;;
78989;SDS011;68390;52.130;21.218;2023-07-22T14:37:43;4.45;;;2.60;;
78989;SDS011;68390;52.130;21.218;2023-07-22T14:40:08;5.00;;;2.67;;
78989;SDS011;68390;52.130;21.218;2023-07-22T14:42:34;6.05;;;2.70;;
78989;SDS011;68390;52.130;21.218;2023-07-22T14:44:59;3.83;;;2.50;;